sensor_id;sensor_type;location;lat;lon;timestamp;P1;durP1;ratioP1;P2;durP2;ratioP2
3463;SDS011;3551;41.578;24.706;2024-02-28T00:02:09;22.08;;;7.15;;
3463;SDS011;3551;41.578;24.706;2024-02-28T00:04:37;16.73;;;7.63;;
3463;SDS011;3551;41.578;24.706;2024-02-28T00:07:07;16.00;;;9.25;;
3463;SDS011;3551;41.578;24.706;2024-02-28T00:09:34;16.35;;;7.90;;
3463;SDS011;3551;41.578;24.706;2024-02-28T00:12:01;13.43;;;6.35;;
3463;SDS011;3551;41.578;24.706;2024-02-28T00:14:28;9.90;;;5.75;;
3463;SDS011;3551;41.578;24.706;2024-02-28T00:16:55;14.88;;;5.65;;
3463;SDS011;3551;41.578;24.706;2024-02-28T00:19:23;29.27;;;6.90;;
3463;SDS011;3551;41.578;24.706;2024-02-28T00:21:50;11.18;;;5.60;;
3463;SDS011;3551;41.578;24.706;2024-02-28T00:24:18;13.55;;;6.57;;
3463;SDS011;3551;41.578;24.706;2024-02-28T00:26:45;12.77;;;5.30;;
3463;SDS011;3551;41.578;24.706;2024-02-28T00:29:12;8.98;;;5.28;;
3463;SDS011;3551;41.578;24.706;2024-02-28T00:31:39;8.02;;;5.13;;
3463;SDS011;3551;41.578;24.706;2024-02-28T00:34:06;11.20;;;6.32;;
3463;SDS011;3551;41.578;24.706;2024-02-28T00:36:34;13.82;;;5.65;;
3463;SDS011;3551;41.578;24.706;2024-02-28T00:39:01;10.90;;;5.40;;
3463;SDS011;3551;41.578;24.706;2024-02-28T00:41:30;10.63;;;5.75;;
3463;SDS011;3551;41.578;24.706;2024-02-28T00:43:57;20.13;;;6.05;;
3463;SDS011;3551;41.578;24.706;2024-02-28T00:46:24;14.45;;;6.75;;
3463;SDS011;3551;41.578;24.706;2024-02-28T00:48:51;10.88;;;5.80;;
3463;SDS011;3551;41.578;24.706;2024-02-28T00:51:18;15.93;;;6.30;;
3463;SDS011;3551;41.578;24.706;2024-02-28T00:53:45;12.95;;;6.25;;
3463;SDS011;3551;41.578;24.706;2024-02-28T00:56:12;13.32;;;7.05;;
3463;SDS011;3551;41.578;24.706;2024-02-28T00:58:40;15.10;;;6.82;;
3463;SDS011;3551;41.578;24.706;2024-02-28T01:01:07;12.32;;;6.32;;
3463;SDS011;3551;41.578;24.706;2024-02-28T01:03:34;18.33;;;6.07;;
3463;SDS011;3551;41.578;24.706;2024-02-28T01:06:01;15.73;;;6.60;;
3463;SDS011;3551;41.578;24.706;2024-02-28T01:08:29;8.98;;;5.38;;
3463;SDS011;3551;41.578;24.706;2024-02-28T01:10:56;11.88;;;5.88;;
3463;SDS011;3551;41.578;24.706;2024-02-28T01:13:24;14.52;;;6.65;;
3463;SDS011;3551;41.578;24.706;2024-02-28T01:15:52;16.08;;;7.30;;
3463;SDS011;3551;41.578;24.706;2024-02-28T01:18:19;15.93;;;5.95;;
3463;SDS011;3551;41.578;24.706;2024-02-28T01:20:46;8.48;;;4.80;;
3463;SDS011;3551;41.578;24.706;2024-02-28T01:23:13;9.40;;;4.53;;
3463;SDS011;3551;41.578;24.706;2024-02-28T01:25:40;8.43;;;4.90;;
3463;SDS011;3551;41.578;24.706;2024-02-28T01:28:07;14.63;;;4.70;;
3463;SDS011;3551;41.578;24.706;2024-02-28T01:30:33;6.85;;;4.25;;
3463;SDS011;3551;41.578;24.706;2024-02-28T01:33:02;6.60;;;4.07;;
3463;SDS011;3551;41.578;24.706;2024-02-28T01:35:29;9.80;;;5.20;;
3463;SDS011;3551;41.578;24.706;2024-02-28T01:37:56;7.35;;;4.53;;
3463;SDS011;3551;41.578;24.706;2024-02-28T01:40:23;9.40;;;4.93;;
3463;SDS011;3551;41.578;24.706;2024-02-28T01:42:50;11.13;;;5.03;;
3463;SDS011;3551;41.578;24.706;2024-02-28T01:45:17;13.75;;;5.95;;
3463;SDS011;3551;41.578;24.706;2024-02-28T01:47:44;13.88;;;4.90;;
3463;SDS011;3551;41.578;24.706;2024-02-28T01:50:13;8.40;;;4.10;;
3463;SDS011;3551;41.578;24.706;2024-02-28T01:52:40;9.35;;;5.10;;
3463;SDS011;3551;41.578;24.706;2024-02-28T01:55:08;8.80;;;4.85;;
3463;SDS011;3551;41.578;24.706;2024-02-28T01:57:35;17.98;;;4.80;;
3463;SDS011;3551;41.578;24.706;2024-02-28T02:00:04;10.57;;;5.20;;
3463;SDS011;3551;41.578;24.706;2024-02-28T02:02:33;13.45;;;5.53;;
3463;SDS011;3551;41.578;24.706;2024-02-28T02:05:00;12.63;;;4.47;;
3463;SDS011;3551;41.578;24.706;2024-02-28T02:07:29;9.60;;;4.55;;
3463;SDS011;3551;41.578;24.706;2024-02-28T02:09:57;7.85;;;4.10;;
3463;SDS011;3551;41.578;24.706;2024-02-28T02:12:24;9.15;;;4.30;;
3463;SDS011;3551;41.578;24.706;2024-02-28T02:14:51;13.57;;;4.95;;
3463;SDS011;3551;41.578;24.706;2024-02-28T02:17:18;10.07;;;5.65;;
3463;SDS011;3551;41.578;24.706;2024-02-28T02:19:45;12.90;;;6.28;;
3463;SDS011;3551;41.578;24.706;2024-02-28T02:22:13;14.88;;;5.90;;
3463;SDS011;3551;41.578;24.706;2024-02-28T02:24:42;17.02;;;10.73;;
3463;SDS011;3551;41.578;24.706;2024-02-28T02:27:08;15.32;;;6.45;;
3463;SDS011;3551;41.578;24.706;2024-02-28T02:29:35;8.68;;;4.75;;
3463;SDS011;3551;41.578;24.706;2024-02-28T02:32:02;25.55;;;5.70;;
3463;SDS011;3551;41.578;24.706;2024-02-28T02:34:29;12.00;;;4.70;;
3463;SDS011;3551;41.578;24.706;2024-02-28T02:36:57;10.52;;;5.28;;
3463;SDS011;3551;41.578;24.706;2024-02-28T02:39:24;14.30;;;5.82;;
3463;SDS011;3551;41.578;24.706;2024-02-28T02:41:52;19.10;;;6.15;;
3463;SDS011;3551;41.578;24.706;2024-02-28T02:44:19;10.23;;;4.95;;
3463;SDS011;3551;41.578;24.706;2024-02-28T02:46:46;11.63;;;4.85;;
3463;SDS011;3551;41.578;24.706;2024-02-28T02:49:13;11.85;;;5.22;;
3463;SDS011;3551;41.578;24.706;2024-02-28T02:51:40;18.67;;;6.80;;
3463;SDS011;3551;41.578;24.706;2024-02-28T02:54:08;13.23;;;5.82;;
3463;SDS011;3551;41.578;24.706;2024-02-28T02:56:35;19.67;;;7.45;;
3463;SDS011;3551;41.578;24.706;2024-02-28T02:59:04;10.73;;;6.25;;
3463;SDS011;3551;41.578;24.706;2024-02-28T03:01:31;9.25;;;5.10;;
3463;SDS011;3551;41.578;24.706;2024-02-28T03:03:57;7.05;;;4.20;;
3463;SDS011;3551;41.578;24.706;2024-02-28T03:06:24;7.18;;;3.97;;
3463;SDS011;3551;41.578;24.706;2024-02-28T03:08:51;13.77;;;4.55;;
3463;SDS011;3551;41.578;24.706;2024-02-28T03:11:18;13.85;;;4.72;;
3463;SDS011;3551;41.578;24.706;2024-02-28T03:13:45;10.70;;;5.88;;
3463;SDS011;3551;41.578;24.706;2024-02-28T03:16:13;12.82;;;4.70;;
3463;SDS011;3551;41.578;24.706;2024-02-28T03:18:40;7.50;;;4.20;;
3463;SDS011;3551;41.578;24.706;2024-02-28T03:21:07;15.48;;;4.75;;
3463;SDS011;3551;41.578;24.706;2024-02-28T03:23:34;8.93;;;5.03;;
3463;SDS011;3551;41.578;24.706;2024-02-28T03:26:01;7.78;;;4.57;;
3463;SDS011;3551;41.578;24.706;2024-02-28T03:28:29;9.38;;;4.20;;
3463;SDS011;3551;41.578;24.706;2024-02-28T03:30:56;8.50;;;4.22;;
3463;SDS011;3551;41.578;24.706;2024-02-28T03:33:24;12.07;;;4.70;;
3463;SDS011;3551;41.578;24.706;2024-02-28T03:35:51;10.98;;;5.50;;
3463;SDS011;3551;41.578;24.706;2024-02-28T03:38:18;14.85;;;5.22;;
3463;SDS011;3551;41.578;24.706;2024-02-28T03:40:45;10.35;;;5.28;;
3463;SDS011;3551;41.578;24.706;2024-02-28T03:43:11;16.52;;;5.00;;
3463;SDS011;3551;41.578;24.706;2024-02-28T03:45:39;9.85;;;4.70;;
3463;SDS011;3551;41.578;24.706;2024-02-28T03:48:06;14.00;;;6.18;;
3463;SDS011;3551;41.578;24.706;2024-02-28T03:50:35;16.10;;;6.30;;
3463;SDS011;3551;41.578;24.706;2024-02-28T03:53:02;11.95;;;5.68;;
3463;SDS011;3551;41.578;24.706;2024-02-28T03:55:30;15.70;;;6.68;;
3463;SDS011;3551;41.578;24.706;2024-02-28T03:57:57;12.15;;;5.65;;
3463;SDS011;3551;41.578;24.706;2024-02-28T04:00:24;10.60;;;5.95;;
3463;SDS011;3551;41.578;24.706;2024-02-28T04:02:52;16.10;;;5.93;;
3463;SDS011;3551;41.578;24.706;2024-02-28T04:05:19;16.73;;;6.75;;
3463;SDS011;3551;41.578;24.706;2024-02-28T04:07:47;18.55;;;6.50;;
3463;SDS011;3551;41.578;24.706;2024-02-28T04:10:14;19.88;;;6.75;;
3463;SDS011;3551;41.578;24.706;2024-02-28T04:12:42;19.10;;;6.95;;
3463;SDS011;3551;41.578;24.706;2024-02-28T04:15:10;22.83;;;7.03;;
3463;SDS011;3551;41.578;24.706;2024-02-28T04:17:38;13.00;;;6.40;;
3463;SDS011;3551;41.578;24.706;2024-02-28T04:20:07;21.25;;;6.50;;
3463;SDS011;3551;41.578;24.706;2024-02-28T04:22:35;11.55;;;6.35;;
3463;SDS011;3551;41.578;24.706;2024-02-28T04:25:04;12.95;;;6.90;;
3463;SDS011;3551;41.578;24.706;2024-02-28T04:27:32;21.33;;;7.18;;
3463;SDS011;3551;41.578;24.706;2024-02-28T04:29:59;11.07;;;6.15;;
3463;SDS011;3551;41.578;24.706;2024-02-28T04:32:26;11.70;;;6.47;;
3463;SDS011;3551;41.578;24.706;2024-02-28T04:34:53;21.42;;;6.20;;
3463;SDS011;3551;41.578;24.706;2024-02-28T04:37:20;13.32;;;6.72;;
3463;SDS011;3551;41.578;24.706;2024-02-28T04:39:47;14.25;;;7.82;;
3463;SDS011;3551;41.578;24.706;2024-02-28T04:42:16;17.73;;;8.00;;
3463;SDS011;3551;41.578;24.706;2024-02-28T04:44:43;17.58;;;7.63;;
3463;SDS011;3551;41.578;24.706;2024-02-28T04:47:10;13.93;;;7.20;;
3463;SDS011;3551;41.578;24.706;2024-02-28T04:49:37;23.02;;;8.68;;
3463;SDS011;3551;41.578;24.706;2024-02-28T04:52:04;16.50;;;8.50;;
3463;SDS011;3551;41.578;24.706;2024-02-28T04:54:32;20.63;;;8.60;;
3463;SDS011;3551;41.578;24.706;2024-02-28T04:56:59;20.95;;;9.18;;
3463;SDS011;3551;41.578;24.706;2024-02-28T04:59:27;14.95;;;8.32;;
3463;SDS011;3551;41.578;24.706;2024-02-28T05:01:54;22.50;;;9.77;;
3463;SDS011;3551;41.578;24.706;2024-02-28T05:04:21;19.42;;;9.45;;
3463;SDS011;3551;41.578;24.706;2024-02-28T05:06:48;23.48;;;9.68;;
3463;SDS011;3551;41.578;24.706;2024-02-28T05:09:16;23.85;;;11.70;;
3463;SDS011;3551;41.578;24.706;2024-02-28T05:11:43;30.20;;;11.52;;
3463;SDS011;3551;41.578;24.706;2024-02-28T05:14:10;24.63;;;11.68;;
3463;SDS011;3551;41.578;24.706;2024-02-28T05:16:39;27.13;;;11.35;;
3463;SDS011;3551;41.578;24.706;2024-02-28T05:19:06;23.80;;;10.98;;
3463;SDS011;3551;41.578;24.706;2024-02-28T05:21:39;24.08;;;11.63;;
3463;SDS011;3551;41.578;24.706;2024-02-28T05:24:06;30.63;;;11.88;;
3463;SDS011;3551;41.578;24.706;2024-02-28T05:26:34;22.85;;;11.95;;
3463;SDS011;3551;41.578;24.706;2024-02-28T05:29:01;30.38;;;14.02;;
3463;SDS011;3551;41.578;24.706;2024-02-28T05:31:29;30.30;;;14.00;;
3463;SDS011;3551;41.578;24.706;2024-02-28T05:33:58;24.35;;;12.45;;
3463;SDS011;3551;41.578;24.706;2024-02-28T05:36:26;27.60;;;13.52;;
3463;SDS011;3551;41.578;24.706;2024-02-28T05:38:56;24.52;;;12.63;;
3463;SDS011;3551;41.578;24.706;2024-02-28T05:41:30;34.00;;;11.82;;
3463;SDS011;3551;41.578;24.706;2024-02-28T05:43:57;28.00;;;12.50;;
3463;SDS011;3551;41.578;24.706;2024-02-28T05:46:24;27.05;;;14.07;;
3463;SDS011;3551;41.578;24.706;2024-02-28T05:48:51;26.67;;;13.63;;
3463;SDS011;3551;41.578;24.706;2024-02-28T05:51:20;39.63;;;13.18;;
3463;SDS011;3551;41.578;24.706;2024-02-28T05:53:48;34.25;;;12.07;;
3463;SDS011;3551;41.578;24.706;2024-02-28T05:56:16;31.10;;;13.07;;
3463;SDS011;3551;41.578;24.706;2024-02-28T05:58:45;25.73;;;12.40;;
3463;SDS011;3551;41.578;24.706;2024-02-28T06:01:38;24.70;;;12.55;;
3463;SDS011;3551;41.578;24.706;2024-02-28T06:04:55;37.28;;;14.82;;
3463;SDS011;3551;41.578;24.706;2024-02-28T06:07:30;29.27;;;13.13;;
3463;SDS011;3551;41.578;24.706;2024-02-28T06:09:57;41.78;;;18.63;;
3463;SDS011;3551;41.578;24.706;2024-02-28T06:12:25;33.33;;;16.27;;
3463;SDS011;3551;41.578;24.706;2024-02-28T06:14:56;46.60;;;18.92;;
3463;SDS011;3551;41.578;24.706;2024-02-28T06:17:26;66.03;;;18.75;;
3463;SDS011;3551;41.578;24.706;2024-02-28T06:19:53;102.53;;;31.67;;
3463;SDS011;3551;41.578;24.706;2024-02-28T06:22:21;66.32;;;26.52;;
3463;SDS011;3551;41.578;24.706;2024-02-28T06:24:50;74.90;;;29.58;;
3463;SDS011;3551;41.578;24.706;2024-02-28T06:27:19;81.85;;;36.20;;
3463;SDS011;3551;41.578;24.706;2024-02-28T06:29:50;75.28;;;41.85;;
3463;SDS011;3551;41.578;24.706;2024-02-28T06:32:22;81.35;;;43.15;;
3463;SDS011;3551;41.578;24.706;2024-02-28T06:34:53;59.60;;;28.63;;
3463;SDS011;3551;41.578;24.706;2024-02-28T06:37:22;73.90;;;39.10;;
3463;SDS011;3551;41.578;24.706;2024-02-28T06:39:52;64.50;;;37.08;;
3463;SDS011;3551;41.578;24.706;2024-02-28T06:42:21;50.40;;;26.42;;
3463;SDS011;3551;41.578;24.706;2024-02-28T06:44:51;74.90;;;37.42;;
3463;SDS011;3551;41.578;24.706;2024-02-28T06:47:20;64.43;;;31.10;;
3463;SDS011;3551;41.578;24.706;2024-02-28T06:49:48;65.20;;;28.60;;
3463;SDS011;3551;41.578;24.706;2024-02-28T06:52:18;59.10;;;28.00;;
3463;SDS011;3551;41.578;24.706;2024-02-28T06:54:45;71.87;;;28.73;;
3463;SDS011;3551;41.578;24.706;2024-02-28T06:57:14;63.47;;;29.87;;
3463;SDS011;3551;41.578;24.706;2024-02-28T06:59:41;55.27;;;26.87;;
3463;SDS011;3551;41.578;24.706;2024-02-28T07:02:08;48.40;;;21.57;;
3463;SDS011;3551;41.578;24.706;2024-02-28T07:04:43;44.63;;;20.27;;
3463;SDS011;3551;41.578;24.706;2024-02-28T07:07:30;50.33;;;23.20;;
3463;SDS011;3551;41.578;24.706;2024-02-28T07:09:57;70.17;;;24.20;;
3463;SDS011;3551;41.578;24.706;2024-02-28T07:15:31;68.50;;;32.37;;
3463;SDS011;3551;41.578;24.706;2024-02-28T07:18:06;63.27;;;30.87;;
3463;SDS011;3551;41.578;24.706;2024-02-28T07:20:44;63.50;;;31.70;;
3463;SDS011;3551;41.578;24.706;2024-02-28T07:23:15;264.17;;;49.07;;
3463;SDS011;3551;41.578;24.706;2024-02-28T07:25:42;439.43;;;74.03;;
3463;SDS011;3551;41.578;24.706;2024-02-28T07:28:10;152.63;;;39.53;;
3463;SDS011;3551;41.578;24.706;2024-02-28T07:30:53;110.03;;;30.80;;
3463;SDS011;3551;41.578;24.706;2024-02-28T07:33:26;90.40;;;27.30;;
3463;SDS011;3551;41.578;24.706;2024-02-28T07:35:53;103.83;;;31.47;;
3463;SDS011;3551;41.578;24.706;2024-02-28T07:38:22;168.40;;;35.07;;
3463;SDS011;3551;41.578;24.706;2024-02-28T07:40:52;153.23;;;30.10;;
3463;SDS011;3551;41.578;24.706;2024-02-28T07:43:19;94.60;;;22.63;;
3463;SDS011;3551;41.578;24.706;2024-02-28T07:45:48;65.63;;;20.43;;
3463;SDS011;3551;41.578;24.706;2024-02-28T07:48:14;59.13;;;20.13;;
3463;SDS011;3551;41.578;24.706;2024-02-28T07:50:43;180.07;;;32.13;;
3463;SDS011;3551;41.578;24.706;2024-02-28T07:53:10;93.03;;;25.73;;
3463;SDS011;3551;41.578;24.706;2024-02-28T07:55:40;91.13;;;25.63;;
3463;SDS011;3551;41.578;24.706;2024-02-28T07:58:07;137.30;;;31.63;;
3463;SDS011;3551;41.578;24.706;2024-02-28T08:00:35;92.33;;;24.27;;
3463;SDS011;3551;41.578;24.706;2024-02-28T08:03:04;85.97;;;25.53;;
3463;SDS011;3551;41.578;24.706;2024-02-28T08:05:31;251.50;;;48.47;;
3463;SDS011;3551;41.578;24.706;2024-02-28T08:08:02;276.67;;;45.30;;
3463;SDS011;3551;41.578;24.706;2024-02-28T08:10:31;263.60;;;44.93;;
3463;SDS011;3551;41.578;24.706;2024-02-28T08:12:58;174.43;;;38.47;;
3463;SDS011;3551;41.578;24.706;2024-02-28T08:15:25;150.60;;;36.43;;
3463;SDS011;3551;41.578;24.706;2024-02-28T08:17:52;71.87;;;20.00;;
3463;SDS011;3551;41.578;24.706;2024-02-28T08:20:21;37.93;;;17.43;;
3463;SDS011;3551;41.578;24.706;2024-02-28T08:22:48;32.40;;;12.63;;
3463;SDS011;3551;41.578;24.706;2024-02-28T08:25:17;38.03;;;13.40;;
3463;SDS011;3551;41.578;24.706;2024-02-28T08:27:44;27.97;;;9.70;;
3463;SDS011;3551;41.578;24.706;2024-02-28T08:30:12;19.87;;;10.23;;
3463;SDS011;3551;41.578;24.706;2024-02-28T08:32:40;85.57;;;19.20;;
3463;SDS011;3551;41.578;24.706;2024-02-28T08:35:08;44.00;;;14.07;;
3463;SDS011;3551;41.578;24.706;2024-02-28T08:37:39;75.77;;;12.20;;
3463;SDS011;3551;41.578;24.706;2024-02-28T08:40:06;41.87;;;13.40;;
3463;SDS011;3551;41.578;24.706;2024-02-28T08:42:34;23.17;;;8.67;;
3463;SDS011;3551;41.578;24.706;2024-02-28T08:45:01;111.37;;;17.63;;
3463;SDS011;3551;41.578;24.706;2024-02-28T08:47:28;70.67;;;14.17;;
3463;SDS011;3551;41.578;24.706;2024-02-28T08:49:56;30.33;;;6.67;;
3463;SDS011;3551;41.578;24.706;2024-02-28T08:52:23;45.43;;;8.70;;
3463;SDS011;3551;41.578;24.706;2024-02-28T08:54:52;17.60;;;4.07;;
3463;SDS011;3551;41.578;24.706;2024-02-28T08:57:19;177.97;;;26.60;;
3463;SDS011;3551;41.578;24.706;2024-02-28T08:59:48;71.83;;;14.77;;
3463;SDS011;3551;41.578;24.706;2024-02-28T09:02:15;22.50;;;9.40;;
3463;SDS011;3551;41.578;24.706;2024-02-28T09:04:42;10.90;;;4.70;;
3463;SDS011;3551;41.578;24.706;2024-02-28T09:07:10;17.77;;;4.63;;
3463;SDS011;3551;41.578;24.706;2024-02-28T09:09:40;26.03;;;3.87;;
3463;SDS011;3551;41.578;24.706;2024-02-28T09:12:10;15.23;;;2.90;;
3463;SDS011;3551;41.578;24.706;2024-02-28T09:14:36;18.33;;;2.50;;
3463;SDS011;3551;41.578;24.706;2024-02-28T09:17:03;31.67;;;4.20;;
3463;SDS011;3551;41.578;24.706;2024-02-28T09:19:31;17.97;;;2.93;;
3463;SDS011;3551;41.578;24.706;2024-02-28T09:21:58;15.53;;;2.37;;
3463;SDS011;3551;41.578;24.706;2024-02-28T09:24:25;13.30;;;2.50;;
3463;SDS011;3551;41.578;24.706;2024-02-28T09:26:52;76.80;;;11.87;;
3463;SDS011;3551;41.578;24.706;2024-02-28T09:29:21;30.93;;;9.77;;
3463;SDS011;3551;41.578;24.706;2024-02-28T09:31:48;10.63;;;1.63;;
3463;SDS011;3551;41.578;24.706;2024-02-28T09:34:15;4.60;;;1.70;;
3463;SDS011;3551;41.578;24.706;2024-02-28T09:36:42;6.90;;;2.60;;
3463;SDS011;3551;41.578;24.706;2024-02-28T09:39:10;26.83;;;7.27;;
3463;SDS011;3551;41.578;24.706;2024-02-28T09:41:37;21.33;;;7.57;;
3463;SDS011;3551;41.578;24.706;2024-02-28T09:44:06;8.97;;;3.90;;
3463;SDS011;3551;41.578;24.706;2024-02-28T09:46:34;11.70;;;2.87;;
3463;SDS011;3551;41.578;24.706;2024-02-28T09:49:03;5.93;;;3.00;;
3463;SDS011;3551;41.578;24.706;2024-02-28T09:51:31;20.43;;;5.37;;
3463;SDS011;3551;41.578;24.706;2024-02-28T09:54:00;11.73;;;3.67;;
3463;SDS011;3551;41.578;24.706;2024-02-28T09:56:27;13.33;;;3.70;;
3463;SDS011;3551;41.578;24.706;2024-02-28T09:58:54;6.63;;;2.30;;
3463;SDS011;3551;41.578;24.706;2024-02-28T10:01:22;18.50;;;2.30;;
3463;SDS011;3551;41.578;24.706;2024-02-28T10:03:50;13.33;;;3.50;;
3463;SDS011;3551;41.578;24.706;2024-02-28T10:06:18;29.67;;;4.97;;
3463;SDS011;3551;41.578;24.706;2024-02-28T10:08:45;16.00;;;3.73;;
3463;SDS011;3551;41.578;24.706;2024-02-28T10:11:17;6.90;;;3.37;;
3463;SDS011;3551;41.578;24.706;2024-02-28T10:13:46;15.63;;;4.13;;
3463;SDS011;3551;41.578;24.706;2024-02-28T10:16:13;9.70;;;2.57;;
3463;SDS011;3551;41.578;24.706;2024-02-28T10:18:42;6.10;;;3.00;;
3463;SDS011;3551;41.578;24.706;2024-02-28T10:21:10;4.53;;;2.27;;
3463;SDS011;3551;41.578;24.706;2024-02-28T10:23:39;5.33;;;1.60;;
3463;SDS011;3551;41.578;24.706;2024-02-28T10:26:08;6.20;;;2.03;;
3463;SDS011;3551;41.578;24.706;2024-02-28T10:28:36;9.77;;;2.83;;
3463;SDS011;3551;41.578;24.706;2024-02-28T10:31:03;17.27;;;2.67;;
3463;SDS011;3551;41.578;24.706;2024-02-28T10:33:31;9.33;;;2.80;;
3463;SDS011;3551;41.578;24.706;2024-02-28T10:36:01;5.87;;;2.53;;
3463;SDS011;3551;41.578;24.706;2024-02-28T10:38:31;7.73;;;2.63;;
3463;SDS011;3551;41.578;24.706;2024-02-28T10:40:59;10.10;;;2.80;;
3463;SDS011;3551;41.578;24.706;2024-02-28T10:43:27;8.30;;;3.07;;
3463;SDS011;3551;41.578;24.706;2024-02-28T10:45:56;6.70;;;3.23;;
3463;SDS011;3551;41.578;24.706;2024-02-28T10:48:24;10.10;;;3.40;;
3463;SDS011;3551;41.578;24.706;2024-02-28T10:50:52;13.33;;;3.40;;
3463;SDS011;3551;41.578;24.706;2024-02-28T10:53:21;19.37;;;3.73;;
3463;SDS011;3551;41.578;24.706;2024-02-28T10:55:51;12.73;;;2.97;;
3463;SDS011;3551;41.578;24.706;2024-02-28T10:58:29;11.53;;;3.47;;
3463;SDS011;3551;41.578;24.706;2024-02-28T11:01:13;8.83;;;2.73;;
3463;SDS011;3551;41.578;24.706;2024-02-28T11:03:40;8.10;;;2.70;;
3463;SDS011;3551;41.578;24.706;2024-02-28T11:06:16;10.43;;;3.90;;
3463;SDS011;3551;41.578;24.706;2024-02-28T11:08:45;14.83;;;3.70;;
3463;SDS011;3551;41.578;24.706;2024-02-28T11:11:14;9.47;;;3.07;;
3463;SDS011;3551;41.578;24.706;2024-02-28T11:13:51;15.10;;;6.60;;
3463;SDS011;3551;41.578;24.706;2024-02-28T11:16:25;26.23;;;6.03;;
3463;SDS011;3551;41.578;24.706;2024-02-28T11:18:53;225.83;;;32.63;;
3463;SDS011;3551;41.578;24.706;2024-02-28T11:23:59;42.80;;;12.97;;
3463;SDS011;3551;41.578;24.706;2024-02-28T11:26:28;12.57;;;4.80;;
3463;SDS011;3551;41.578;24.706;2024-02-28T11:28:55;35.07;;;6.50;;
3463;SDS011;3551;41.578;24.706;2024-02-28T11:31:28;70.33;;;16.50;;
3463;SDS011;3551;41.578;24.706;2024-02-28T11:33:56;11.50;;;4.07;;
3463;SDS011;3551;41.578;24.706;2024-02-28T11:36:29;49.50;;;9.50;;
3463;SDS011;3551;41.578;24.706;2024-02-28T11:39:40;17.90;;;5.97;;
3463;SDS011;3551;41.578;24.706;2024-02-28T11:42:41;22.20;;;9.70;;
3463;SDS011;3551;41.578;24.706;2024-02-28T11:45:10;25.90;;;3.17;;
3463;SDS011;3551;41.578;24.706;2024-02-28T11:47:40;9.70;;;2.80;;
3463;SDS011;3551;41.578;24.706;2024-02-28T11:50:07;17.47;;;3.90;;
3463;SDS011;3551;41.578;24.706;2024-02-28T11:52:36;35.73;;;10.57;;
3463;SDS011;3551;41.578;24.706;2024-02-28T11:55:05;74.87;;;47.53;;
3463;SDS011;3551;41.578;24.706;2024-02-28T11:57:35;20.30;;;14.90;;
3463;SDS011;3551;41.578;24.706;2024-02-28T12:00:05;159.07;;;136.60;;
3463;SDS011;3551;41.578;24.706;2024-02-28T12:02:34;63.13;;;44.27;;
3463;SDS011;3551;41.578;24.706;2024-02-28T12:05:01;5.37;;;2.07;;
3463;SDS011;3551;41.578;24.706;2024-02-28T12:07:29;5.80;;;2.47;;
3463;SDS011;3551;41.578;24.706;2024-02-28T12:09:56;10.80;;;2.90;;
3463;SDS011;3551;41.578;24.706;2024-02-28T12:12:23;40.47;;;4.30;;
3463;SDS011;3551;41.578;24.706;2024-02-28T12:14:50;23.77;;;5.50;;
3463;SDS011;3551;41.578;24.706;2024-02-28T12:17:19;29.07;;;5.80;;
3463;SDS011;3551;41.578;24.706;2024-02-28T12:19:46;9.93;;;4.40;;
3463;SDS011;3551;41.578;24.706;2024-02-28T12:22:13;9.40;;;2.60;;
3463;SDS011;3551;41.578;24.706;2024-02-28T12:24:40;28.83;;;6.83;;
3463;SDS011;3551;41.578;24.706;2024-02-28T12:27:06;16.13;;;2.93;;
3463;SDS011;3551;41.578;24.706;2024-02-28T12:29:33;4.67;;;2.67;;
3463;SDS011;3551;41.578;24.706;2024-02-28T12:32:00;10.67;;;5.13;;
3463;SDS011;3551;41.578;24.706;2024-02-28T12:34:29;16.10;;;5.43;;
3463;SDS011;3551;41.578;24.706;2024-02-28T12:36:56;15.83;;;6.13;;
3463;SDS011;3551;41.578;24.706;2024-02-28T12:39:25;17.30;;;4.23;;
3463;SDS011;3551;41.578;24.706;2024-02-28T12:41:53;12.50;;;4.70;;
3463;SDS011;3551;41.578;24.706;2024-02-28T12:44:20;22.30;;;4.73;;
3463;SDS011;3551;41.578;24.706;2024-02-28T12:46:47;6.70;;;2.93;;
3463;SDS011;3551;41.578;24.706;2024-02-28T12:49:14;11.30;;;2.83;;
3463;SDS011;3551;41.578;24.706;2024-02-28T12:51:43;25.53;;;5.97;;
3463;SDS011;3551;41.578;24.706;2024-02-28T12:54:11;22.53;;;5.93;;
3463;SDS011;3551;41.578;24.706;2024-02-28T12:56:39;20.00;;;4.10;;
3463;SDS011;3551;41.578;24.706;2024-02-28T12:59:08;10.33;;;3.90;;
3463;SDS011;3551;41.578;24.706;2024-02-28T13:01:35;14.13;;;4.33;;
3463;SDS011;3551;41.578;24.706;2024-02-28T13:04:03;16.03;;;3.57;;
3463;SDS011;3551;41.578;24.706;2024-02-28T13:06:32;35.77;;;6.20;;
3463;SDS011;3551;41.578;24.706;2024-02-28T13:09:00;17.07;;;5.10;;
3463;SDS011;3551;41.578;24.706;2024-02-28T13:11:27;40.37;;;5.57;;
3463;SDS011;3551;41.578;24.706;2024-02-28T13:13:54;14.80;;;3.70;;
3463;SDS011;3551;41.578;24.706;2024-02-28T13:16:21;7.93;;;3.80;;
3463;SDS011;3551;41.578;24.706;2024-02-28T13:18:48;31.90;;;5.90;;
3463;SDS011;3551;41.578;24.706;2024-02-28T13:21:15;19.40;;;3.40;;
3463;SDS011;3551;41.578;24.706;2024-02-28T13:23:42;25.27;;;5.63;;
3463;SDS011;3551;41.578;24.706;2024-02-28T13:26:11;21.83;;;5.00;;
3463;SDS011;3551;41.578;24.706;2024-02-28T13:28:43;10.47;;;4.30;;
3463;SDS011;3551;41.578;24.706;2024-02-28T13:31:09;12.33;;;5.37;;
3463;SDS011;3551;41.578;24.706;2024-02-28T13:33:39;70.70;;;14.83;;
3463;SDS011;3551;41.578;24.706;2024-02-28T13:36:07;25.87;;;6.50;;
3463;SDS011;3551;41.578;24.706;2024-02-28T13:38:34;43.37;;;6.30;;
3463;SDS011;3551;41.578;24.706;2024-02-28T13:41:02;10.13;;;3.00;;
3463;SDS011;3551;41.578;24.706;2024-02-28T13:43:31;27.07;;;5.70;;
3463;SDS011;3551;41.578;24.706;2024-02-28T13:45:58;36.23;;;6.80;;
3463;SDS011;3551;41.578;24.706;2024-02-28T13:48:26;87.53;;;11.00;;
3463;SDS011;3551;41.578;24.706;2024-02-28T13:50:55;165.47;;;26.43;;
3463;SDS011;3551;41.578;24.706;2024-02-28T13:53:22;157.10;;;23.53;;
3463;SDS011;3551;41.578;24.706;2024-02-28T13:55:50;181.73;;;30.23;;
3463;SDS011;3551;41.578;24.706;2024-02-28T13:58:17;248.07;;;37.70;;
3463;SDS011;3551;41.578;24.706;2024-02-28T14:00:45;97.93;;;20.67;;
3463;SDS011;3551;41.578;24.706;2024-02-28T14:03:13;41.63;;;10.10;;
3463;SDS011;3551;41.578;24.706;2024-02-28T14:06:20;24.87;;;6.40;;
3463;SDS011;3551;41.578;24.706;2024-02-28T14:08:47;67.17;;;11.87;;
3463;SDS011;3551;41.578;24.706;2024-02-28T14:11:16;79.77;;;13.03;;
3463;SDS011;3551;41.578;24.706;2024-02-28T14:13:43;33.20;;;8.23;;
3463;SDS011;3551;41.578;24.706;2024-02-28T14:16:12;43.90;;;6.83;;
3463;SDS011;3551;41.578;24.706;2024-02-28T14:18:38;12.30;;;5.73;;
3463;SDS011;3551;41.578;24.706;2024-02-28T14:21:05;23.90;;;7.60;;
3463;SDS011;3551;41.578;24.706;2024-02-28T14:23:32;65.37;;;16.10;;
3463;SDS011;3551;41.578;24.706;2024-02-28T14:25:59;16.27;;;7.40;;
3463;SDS011;3551;41.578;24.706;2024-02-28T14:28:27;19.33;;;6.93;;
3463;SDS011;3551;41.578;24.706;2024-02-28T14:30:54;44.37;;;9.37;;
3463;SDS011;3551;41.578;24.706;2024-02-28T14:33:22;21.80;;;7.43;;
3463;SDS011;3551;41.578;24.706;2024-02-28T14:35:49;24.20;;;7.20;;
3463;SDS011;3551;41.578;24.706;2024-02-28T14:38:17;10.50;;;5.10;;
3463;SDS011;3551;41.578;24.706;2024-02-28T14:40:44;15.03;;;5.43;;
3463;SDS011;3551;41.578;24.706;2024-02-28T14:43:11;14.03;;;6.67;;
3463;SDS011;3551;41.578;24.706;2024-02-28T14:45:39;43.10;;;9.03;;
3463;SDS011;3551;41.578;24.706;2024-02-28T14:48:06;26.03;;;7.20;;
3463;SDS011;3551;41.578;24.706;2024-02-28T14:50:35;24.33;;;9.07;;
3463;SDS011;3551;41.578;24.706;2024-02-28T14:53:02;17.67;;;6.90;;
3463;SDS011;3551;41.578;24.706;2024-02-28T14:55:29;8.80;;;5.53;;
3463;SDS011;3551;41.578;24.706;2024-02-28T14:57:56;28.23;;;10.30;;
3463;SDS011;3551;41.578;24.706;2024-02-28T15:00:33;19.20;;;7.90;;